Time;durP1;ratioP1;P1;durP2;ratioP2;P2;SDS_P1;SDS_P2;PMS_P1;PMS_P2;Temp;Humidity;BMP_temperature;BMP_pressure;BME280_temperature;BME280_humidity;BME280_pressure;Samples;Min_cycle;Max_cycle;Signal;HPM_P1;HPM_P2
2023/03/06 00:01:51;;;;;;;17.50;9.70;;;;;;;4.58;66.10;94262.63;5013657;28;20922;-80
2023/03/06 00:04:18;;;;;;;19.30;9.20;;;;;;;4.60;66.17;94260.59;5014790;28;20172;-77
2023/03/06 00:06:43;;;;;;;22.27;10.97;;;;;;;4.57;65.93;94257.59;5014908;28;20180;-78
2023/03/06 00:09:09;;;;;;;18.63;9.30;;;;;;;4.63;65.80;94260.22;5014598;28;20535;-78
2023/03/06 00:11:35;;;;;;;17.15;9.63;;;;;;;4.57;65.87;94253.19;5014475;28;20544;-78
2023/03/06 00:14:00;;;;;;;16.85;9.40;;;;;;;4.51;66.28;94254.72;4996512;28;20949;-78
2023/03/06 00:16:25;;;;;;;21.57;9.63;;;;;;;4.47;66.62;94242.28;5014103;28;20183;-78
2023/03/06 00:18:51;;;;;;;17.80;9.17;;;;;;;4.49;66.59;94253.31;5014204;28;20211;-77
2023/03/06 00:21:16;;;;;;;16.83;9.37;;;;;;;4.49;66.67;94254.13;5014097;28;20184;-77
2023/03/06 00:23:42;;;;;;;21.13;10.37;;;;;;;4.50;66.47;94258.31;5012594;28;20425;-78
2023/03/06 00:26:08;;;;;;;16.47;9.57;;;;;;;4.53;66.21;94246.72;5013153;28;20514;-78
2023/03/06 00:28:34;;;;;;;18.43;10.20;;;;;;;4.54;66.40;94256.16;5014324;28;20447;-78
2023/03/06 00:31:00;;;;;;;18.97;9.07;;;;;;;4.52;66.74;94258.94;5014094;28;20555;-78
2023/03/06 00:33:26;;;;;;;16.07;8.53;;;;;;;4.53;67.04;94259.75;5014101;28;20581;-78
2023/03/06 00:35:51;;;;;;;16.23;8.80;;;;;;;4.49;66.59;94251.53;5012897;28;20180;-78
2023/03/06 00:38:17;;;;;;;16.90;7.73;;;;;;;4.52;66.50;94251.13;5014050;28;20200;-77
2023/03/06 00:40:42;;;;;;;14.33;8.50;;;;;;;4.52;66.47;94250.31;5013564;28;20187;-78
2023/03/06 00:43:08;;;;;;;11.83;7.63;;;;;;;4.55;66.60;94255.16;5013903;28;20242;-77
2023/03/06 00:45:33;;;;;;;22.87;8.83;;;;;;;4.51;66.38;94248.69;5013842;28;20604;-77
2023/03/06 00:47:59;;;;;;;17.47;9.00;;;;;;;4.37;66.42;94221.75;5013664;28;20675;-78
2023/03/06 00:50:24;;;;;;;15.30;8.80;;;;;;;4.41;66.75;94224.78;4996162;28;20234;-79
2023/03/06 00:52:49;;;;;;;19.47;9.10;;;;;;;4.58;66.94;94256.59;5013546;28;20203;-77
2023/03/06 00:55:15;;;;;;;22.47;9.43;;;;;;;4.58;67.34;94252.19;5013892;28;20172;-77
2023/03/06 00:57:40;;;;;;;16.48;8.57;;;;;;;4.63;66.86;94243.78;5012982;28;20437;-77
2023/03/06 01:00:07;;;;;;;16.57;9.70;;;;;;;4.59;66.73;94245.16;5012556;28;20804;-78
2023/03/06 01:02:32;;;;;;;20.73;9.40;;;;;;;4.65;66.58;94249.63;5013544;28;20226;-77
2023/03/06 01:04:58;;;;;;;18.67;9.27;;;;;;;4.70;66.74;94245.44;5013561;28;20678;-77
2023/03/06 01:07:26;;;;;;;19.40;10.23;;;;;;;4.78;66.04;94237.47;5012552;28;20977;-78
2023/03/06 01:09:51;;;;;;;18.63;9.87;;;;;;;4.52;66.33;94195.59;5013772;28;20225;-78
2023/03/06 01:12:16;;;;;;;18.43;8.47;;;;;;;4.89;65.82;94234.34;5012413;28;20643;-78
2023/03/06 01:14:42;;;;;;;16.93;8.43;;;;;;;4.94;65.33;94226.75;5013684;28;20169;-78
2023/03/06 01:17:07;;;;;;;15.77;8.60;;;;;;;4.99;65.08;94231.41;5013083;28;20195;-77
2023/03/06 01:19:33;;;;;;;17.73;9.70;;;;;;;4.76;64.86;94194.34;5012176;28;20525;-77
2023/03/06 01:21:58;;;;;;;15.07;8.00;;;;;;;4.98;64.85;94226.38;5013500;28;20626;-78
2023/03/06 01:24:24;;;;;;;12.70;7.63;;;;;;;4.93;64.69;94237.34;5013289;28;20569;-78
2023/03/06 01:26:50;;;;;;;14.13;8.17;;;;;;;4.97;64.49;94229.97;5013310;28;20173;-78
2023/03/06 01:29:16;;;;;;;15.03;8.57;;;;;;;5.01;64.65;94228.59;5013161;28;20211;-78
2023/03/06 01:31:41;;;;;;;15.90;9.07;;;;;;;4.90;64.80;94222.94;5012658;28;20565;-78
2023/03/06 01:34:06;;;;;;;17.40;8.90;;;;;;;4.87;64.96;94218.09;5013255;28;20172;-78
2023/03/06 01:36:32;;;;;;;16.13;8.93;;;;;;;4.93;65.09;94226.94;5013447;28;20216;-78
2023/03/06 01:38:57;;;;;;;15.80;7.50;;;;;;;4.85;65.17;94224.47;5012790;28;20626;-79
2023/03/06 01:41:23;;;;;;;16.47;7.17;;;;;;;4.89;64.98;94236.97;5013107;28;20176;-78
2023/03/06 01:43:49;;;;;;;22.23;8.23;;;;;;;4.86;65.10;94226.91;5013115;28;20268;-78
2023/03/06 01:46:29;;;;;;;13.97;7.57;;;;;;;4.83;65.09;94216.06;5012803;28;20176;-79
2023/03/06 01:49:01;;;;;;;16.63;8.43;;;;;;;4.82;65.52;94233.50;5005188;28;20433;-78
2023/03/06 01:51:42;;;;;;;15.80;8.88;;;;;;;4.73;65.36;94213.00;5010077;28;20807;-80
2023/03/06 01:54:14;;;;;;;14.57;7.90;;;;;;;4.79;65.47;94236.47;5006917;28;20203;-79
2023/03/06 01:56:43;;;;;;;17.70;8.30;;;;;;;4.69;65.50;94212.53;5012411;28;20220;-78
2023/03/06 01:59:09;;;;;;;19.60;9.35;;;;;;;4.67;66.24;94229.41;5011664;28;20925;-78
2023/03/06 02:01:38;;;;;;;15.43;8.73;;;;;;;4.66;65.69;94225.97;5012596;28;20179;-78
2023/03/06 02:04:04;;;;;;;14.40;8.00;;;;;;;4.59;66.00;94217.28;5012362;28;20200;-78
2023/03/06 02:06:29;;;;;;;14.00;8.27;;;;;;;4.72;65.57;94232.22;5012391;28;20200;-78
2023/03/06 02:08:55;;;;;;;17.97;8.97;;;;;;;4.59;65.48;94211.25;5012844;28;20255;-78
2023/03/06 02:11:23;;;;;;;16.60;8.20;;;;;;;4.67;65.53;94224.97;5012371;28;20172;-78
2023/03/06 02:13:50;;;;;;;18.77;8.10;;;;;;;4.68;65.64;94229.19;5012448;28;20172;-78
2023/03/06 02:16:18;;;;;;;17.60;9.30;;;;;;;4.65;65.82;94231.38;5012484;28;20168;-78
2023/03/06 02:18:45;;;;;;;15.80;8.48;;;;;;;4.60;65.70;94229.31;5011032;28;20810;-79
2023/03/06 02:21:19;;;;;;;17.58;9.35;;;;;;;4.63;65.61;94233.38;5010731;28;20414;-77
2023/03/06 02:23:59;;;;;;;15.63;8.70;;;;;;;4.52;66.34;94227.66;5011206;28;20917;-78
2023/03/06 02:26:26;;;;;;;20.20;9.38;;;;;;;4.34;66.32;94201.28;5003123;28;20825;-78
2023/03/06 02:28:52;;;;;;;16.53;8.97;;;;;;;4.57;66.10;94224.50;5011259;28;20413;-77
2023/03/06 02:31:23;;;;;;;16.60;8.70;;;;;;;4.56;65.88;94228.09;5011704;28;20410;-77
2023/03/06 02:34:22;;;;;;;15.10;9.10;;;;;;;4.46;65.83;94201.56;5010474;28;20425;-77
2023/03/06 02:36:52;;;;;;;16.88;9.32;;;;;;;4.60;65.97;94226.72;4979680;28;21026;-78
2023/03/06 02:39:20;;;;;;;16.08;9.02;;;;;;;4.49;66.13;94233.28;5010947;28;20802;-78
2023/03/06 02:41:46;;;;;;;12.97;7.30;;;;;;;4.57;65.93;94234.94;5011969;28;20662;-78
2023/03/06 02:44:11;;;;;;;15.47;8.40;;;;;;;4.65;65.67;94229.59;5011036;28;20450;-78
2023/03/06 02:46:37;;;;;;;18.10;9.40;;;;;;;4.52;65.36;94219.03;5010170;28;20585;-79
2023/03/06 02:49:02;;;;;;;20.87;10.67;;;;;;;4.51;65.74;94239.09;5011076;28;20492;-78
2023/03/06 02:51:28;;;;;;;18.60;8.80;;;;;;;4.42;65.57;94213.34;5011809;28;20180;-79
2023/03/06 02:53:53;;;;;;;18.85;9.98;;;;;;;4.48;65.54;94228.25;5010816;28;20426;-79
2023/03/06 02:56:19;;;;;;;17.07;8.33;;;;;;;4.41;65.85;94212.53;5011568;28;20223;-78
2023/03/06 02:58:44;;;;;;;15.05;8.02;;;;;;;4.53;65.68;94231.09;5000987;28;20975;-78
2023/03/06 03:01:09;;;;;;;15.98;8.63;;;;;;;4.41;66.29;94227.41;4999203;28;20423;-78
2023/03/06 03:03:35;;;;;;;15.87;8.00;;;;;;;4.37;66.41;94231.34;5004210;28;20173;-79
2023/03/06 03:06:04;;;;;;;12.90;8.00;;;;;;;4.14;66.90;94193.31;5013741;28;20410;-78
2023/03/06 03:08:29;;;;;;;12.90;7.47;;;;;;;4.30;66.68;94233.91;5007770;28;20164;-77
2023/03/06 03:10:55;;;;;;;14.17;7.77;;;;;;;4.34;67.02;94236.94;5007055;28;20410;-78
2023/03/06 03:13:21;;;;;;;16.37;8.07;;;;;;;4.34;67.04;94231.72;5007256;28;20169;-77
2023/03/06 03:15:57;;;;;;;16.03;8.00;;;;;;;4.26;67.23;94229.25;5007515;28;20533;-77
2023/03/06 03:18:23;;;;;;;19.20;8.75;;;;;;;4.28;67.27;94232.47;4997998;28;20492;-77
2023/03/06 03:20:48;;;;;;;16.55;8.63;;;;;;;4.31;67.49;94237.34;5000693;28;20407;-77
2023/03/06 03:23:13;;;;;;;21.60;9.07;;;;;;;4.36;67.29;94240.16;5005400;28;20583;-77
2023/03/06 03:25:39;;;;;;;17.87;8.67;;;;;;;4.29;67.32;94215.88;5018472;28;20177;-76
2023/03/06 03:28:04;;;;;;;16.83;8.10;;;;;;;4.48;66.89;94234.28;5015543;28;20557;-78
2023/03/06 03:30:30;;;;;;;11.67;6.93;;;;;;;4.39;66.62;94213.75;4996107;28;20213;-76
2023/03/06 03:32:55;;;;;;;15.23;7.60;;;;;;;4.51;66.63;94233.88;5009500;28;20176;-76
2023/03/06 03:35:20;;;;;;;14.30;7.43;;;;;;;4.49;66.72;94229.88;5005801;28;20192;-76
2023/03/06 03:37:46;;;;;;;13.77;7.50;;;;;;;4.49;66.65;94224.66;5007451;28;20172;-76
2023/03/06 03:40:11;;;;;;;15.03;7.87;;;;;;;4.44;66.86;94229.59;4998555;28;20478;-77
2023/03/06 03:42:37;;;;;;;15.07;7.07;;;;;;;4.41;66.55;94237.81;5013996;28;20597;-77
2023/03/06 03:45:03;;;;;;;14.20;7.37;;;;;;;4.37;66.84;94239.97;5014566;28;20414;-77
2023/03/06 03:47:28;;;;;;;17.27;9.52;;;;;;;4.32;67.47;94236.34;4996796;28;20931;-77
2023/03/06 03:49:53;;;;;;;13.40;8.83;;;;;;;4.23;67.76;94245.28;4998965;28;20173;-77
2023/03/06 03:52:19;;;;;;;19.17;10.77;;;;;;;4.08;68.71;94238.31;5013199;28;20407;-78
2023/03/06 03:54:44;;;;;;;17.83;10.70;;;;;;;4.04;68.96;94239.69;4996540;28;20177;-77
2023/03/06 03:57:10;;;;;;;19.73;10.70;;;;;;;4.13;69.27;94245.59;5004540;28;20454;-76
2023/03/06 03:59:35;;;;;;;17.93;8.67;;;;;;;4.09;69.55;94252.94;5014719;28;20197;-77
2023/03/06 04:02:03;;;;;;;14.67;8.10;;;;;;;4.11;69.55;94253.59;5014355;28;20168;-76
2023/03/06 04:04:29;;;;;;;18.77;8.10;;;;;;;4.10;69.67;94254.56;5014038;28;20745;-77
2023/03/06 04:06:54;;;;;;;16.27;8.70;;;;;;;4.06;69.91;94250.75;5013858;28;20173;-77
2023/03/06 04:09:20;;;;;;;18.20;9.33;;;;;;;3.99;69.89;94236.03;5014009;28;20663;-77
2023/03/06 04:11:45;;;;;;;26.13;9.07;;;;;;;4.07;70.24;94252.31;5014345;28;20172;-76
2023/03/06 04:14:10;;;;;;;16.83;9.20;;;;;;;4.06;69.81;94258.56;5012992;28;20314;-77
2023/03/06 04:16:36;;;;;;;13.60;8.53;;;;;;;4.04;69.28;94264.94;5013812;28;20172;-76
2023/03/06 04:19:01;;;;;;;13.13;8.30;;;;;;;4.00;69.55;94255.84;5013550;28;20204;-76
2023/03/06 04:21:27;;;;;;;19.70;9.83;;;;;;;3.78;69.70;94231.63;5013514;28;20211;-76
2023/03/06 04:23:52;;;;;;;14.70;8.40;;;;;;;4.01;69.84;94270.50;5013731;28;20185;-81
2023/03/06 04:26:17;;;;;;;17.30;8.77;;;;;;;4.05;69.51;94266.53;5014647;28;20172;-78
2023/03/06 04:28:43;;;;;;;16.17;8.70;;;;;;;4.03;69.32;94265.91;5014284;28;20172;-79
2023/03/06 04:31:11;;;;;;;17.93;9.47;;;;;;;3.85;69.41;94247.31;5013866;28;20168;-78
2023/03/06 04:33:36;;;;;;;22.03;9.57;;;;;;;4.06;69.02;94268.16;5013276;28;20173;-79
2023/03/06 04:36:02;;;;;;;24.83;10.13;;;;;;;4.11;69.02;94268.41;5013274;28;20172;-77
2023/03/06 04:38:27;;;;;;;21.80;10.07;;;;;;;4.13;68.36;94269.03;5013326;28;20200;-76
2023/03/06 04:40:53;;;;;;;26.03;10.80;;;;;;;4.16;68.98;94273.84;5015743;28;20184;-77
2023/03/06 04:43:18;;;;;;;18.10;10.53;;;;;;;4.23;69.31;94276.53;5012545;28;20177;-76
2023/03/06 04:45:44;;;;;;;26.77;11.83;;;;;;;4.16;69.19;94255.59;5013496;28;20184;-79
2023/03/06 04:48:13;;;;;;;27.93;11.47;;;;;;;4.09;68.51;94239.13;5013517;28;20165;-77
2023/03/06 04:50:39;;;;;;;17.03;9.90;;;;;;;4.40;68.44;94285.72;5012114;28;20177;-76
2023/03/06 04:53:04;;;;;;;22.60;10.33;;;;;;;4.43;68.65;94273.09;5007756;28;20184;-76
2023/03/06 04:55:30;;;;;;;20.63;10.90;;;;;;;4.46;68.45;94277.13;5013473;28;20612;-78
2023/03/06 04:57:56;;;;;;;20.50;10.67;;;;;;;4.39;68.88;94260.66;5012571;28;20220;-78
2023/03/06 05:00:24;;;;;;;24.47;11.87;;;;;;;4.49;68.70;94279.38;5012890;28;20200;-76
2023/03/06 05:02:50;;;;;;;20.47;11.27;;;;;;;4.59;68.05;94277.22;5009704;28;20173;-77
2023/03/06 05:05:16;;;;;;;21.63;11.10;;;;;;;4.44;68.27;94276.50;5011396;28;20855;-76
2023/03/06 05:07:42;;;;;;;20.50;11.90;;;;;;;4.28;68.78;94279.38;5011508;28;20446;-77
2023/03/06 05:10:12;;;;;;;25.10;10.63;;;;;;;4.18;69.17;94275.28;5017529;28;20219;-77
2023/03/06 05:12:38;;;;;;;18.83;9.97;;;;;;;4.16;69.52;94263.44;5016062;28;20180;-78
2023/03/06 05:15:05;;;;;;;22.13;11.43;;;;;;;4.36;69.01;94287.06;5013679;28;20411;-76
2023/03/06 05:17:34;;;;;;;18.67;11.57;;;;;;;4.30;68.55;94285.22;5015176;28;20460;-76
2023/03/06 05:19:59;;;;;;;19.40;9.90;;;;;;;4.15;68.83;94267.81;5010972;28;20444;-77
2023/03/06 05:22:24;;;;;;;19.67;10.98;;;;;;;4.12;69.46;94270.00;5009212;28;20867;-78
2023/03/06 05:24:50;;;;;;;18.90;11.37;;;;;;;4.31;69.44;94286.81;5011011;28;20425;-76
2023/03/06 05:27:16;;;;;;;27.53;10.37;;;;;;;4.35;69.08;94291.47;5012708;28;20169;-77
2023/03/06 05:29:41;;;;;;;22.45;11.35;;;;;;;4.30;69.20;94288.63;4998155;28;20961;-78
2023/03/06 05:32:16;;;;;;;19.90;10.30;;;;;;;4.39;69.40;94286.69;5013319;28;20173;-79
2023/03/06 05:34:42;;;;;;;24.03;12.37;;;;;;;4.40;68.87;94290.91;5004142;28;20469;-77
2023/03/06 05:37:07;;;;;;;28.33;12.30;;;;;;;4.36;69.15;94297.47;5011403;28;20422;-78
2023/03/06 05:39:33;;;;;;;31.57;11.30;;;;;;;4.50;69.17;94294.78;5012427;28;20199;-77
2023/03/06 05:41:58;;;;;;;20.90;10.70;;;;;;;4.45;68.91;94284.13;5012198;28;20617;-78
2023/03/06 05:44:24;;;;;;;25.57;10.50;;;;;;;4.55;68.93;94292.44;5012204;28;20184;-79
2023/03/06 05:46:49;;;;;;;30.27;11.57;;;;;;;4.64;68.54;94292.31;5012346;28;20180;-78
2023/03/06 05:49:15;;;;;;;19.60;10.40;;;;;;;4.72;68.71;94303.41;5012066;28;20169;-77
2023/03/06 05:51:41;;;;;;;17.00;10.40;;;;;;;4.88;68.05;94316.16;5012045;28;20235;-76
2023/03/06 05:54:07;;;;;;;33.37;10.63;;;;;;;4.64;67.33;94263.66;5012796;28;20203;-77
2023/03/06 05:56:32;;;;;;;24.10;10.40;;;;;;;5.19;67.87;94307.94;5012583;28;20223;-82
2023/03/06 05:58:58;;;;;;;21.37;9.17;;;;;;;5.34;66.98;94313.06;5004396;28;20642;-78
2023/03/06 06:01:24;;;;;;;16.57;9.20;;;;;;;5.80;66.31;94315.09;5008584;28;20183;-78
2023/03/06 06:03:50;;;;;;;17.87;8.83;;;;;;;6.77;63.02;94292.00;5001940;28;20184;-78
2023/03/06 06:06:15;;;;;;;22.13;11.07;;;;;;;8.43;59.25;94296.59;5000919;28;20165;-77
2023/03/06 06:08:41;;;;;;;15.67;9.40;;;;;;;10.63;53.02;94324.72;5001102;28;20572;-77
2023/03/06 06:11:08;;;;;;;16.23;8.63;;;;;;;12.17;48.75;94323.56;5011454;28;20184;-79
2023/03/06 06:13:35;;;;;;;21.87;9.00;;;;;;;13.62;45.27;94309.72;5012094;28;20165;-79
2023/03/06 06:16:08;;;;;;;15.80;9.77;;;;;;;15.12;41.10;94331.38;5008402;28;20651;-80
2023/03/06 06:18:34;;;;;;;16.00;9.33;;;;;;;15.06;40.30;94333.94;5012337;28;20192;-79
2023/03/06 06:21:04;;;;;;;14.70;8.73;;;;;;;14.24;40.85;94320.06;5012407;28;20172;-81
2023/03/06 06:23:30;;;;;;;18.55;9.98;;;;;;;14.74;40.94;94351.66;5012665;28;20683;-82
2023/03/06 06:25:58;;;;;;;17.23;9.80;;;;;;;15.29;39.39;94310.81;5012342;28;20252;-80
2023/03/06 06:28:24;;;;;;;18.23;10.57;;;;;;;15.94;36.38;94352.97;5012524;28;20165;-80
2023/03/06 06:30:49;;;;;;;16.60;9.18;;;;;;;16.23;36.53;94313.56;5011707;28;20187;-79
2023/03/06 06:33:15;;;;;;;19.45;10.13;;;;;;;16.72;35.22;94345.94;5011683;28;20195;-80
2023/03/06 06:35:40;;;;;;;18.88;9.05;;;;;;;16.65;35.61;94352.56;4995192;28;20186;-81
2023/03/06 06:38:05;;;;;;;20.25;9.48;;;;;;;17.51;33.78;94350.84;4999584;28;20608;-82
2023/03/06 06:40:31;;;;;;;20.88;10.48;;;;;;;17.66;31.93;94350.09;5012611;28;20180;-80
2023/03/06 06:42:56;;;;;;;16.60;9.07;;;;;;;16.87;32.77;94313.25;5016602;28;20283;-83
2023/03/06 06:45:21;;;;;;;14.18;9.30;;;;;;;17.62;32.44;94343.72;5016087;28;20255;-83
2023/03/06 06:47:48;;;;;;;14.50;9.68;;;;;;;17.76;31.29;94317.34;5016436;28;20153;-82
2023/03/06 06:50:14;;;;;;;17.33;9.85;;;;;;;17.63;31.17;94314.16;4998426;28;20567;-83
2023/03/06 06:52:39;;;;;;;18.70;9.95;;;;;;;17.56;31.29;94356.16;5016038;28;20177;-82
2023/03/06 06:55:05;;;;;;;19.70;9.63;;;;;;;17.78;31.43;94352.47;5016264;28;20187;-82
2023/03/06 06:57:31;;;;;;;15.50;9.48;;;;;;;17.81;30.74;94351.97;5015890;28;20244;-82
2023/03/06 06:59:56;;;;;;;15.35;9.43;;;;;;;17.30;30.93;94366.00;5016376;28;20189;-81
2023/03/06 07:02:21;;;;;;;16.73;10.20;;;;;;;16.54;31.78;94346.38;5015743;28;20168;-82
2023/03/06 07:04:47;;;;;;;15.25;9.52;;;;;;;16.36;32.46;94366.22;5016175;28;20156;-83
2023/03/06 07:07:13;;;;;;;16.25;10.27;;;;;;;16.63;32.61;94360.78;5015775;28;20697;-84
2023/03/06 07:09:39;;;;;;;13.93;9.68;;;;;;;15.53;33.06;94349.22;5015867;28;20157;-83
2023/03/06 07:12:06;;;;;;;16.42;9.13;;;;;;;15.36;35.12;94356.50;5016059;28;21076;-82
2023/03/06 07:14:31;;;;;;;15.77;9.40;;;;;;;15.78;34.10;94359.25;5015564;28;20255;-79
2023/03/06 07:16:57;;;;;;;14.52;10.00;;;;;;;16.09;34.31;94363.69;5015686;28;20243;-80
2023/03/06 07:19:22;;;;;;;17.13;10.27;;;;;;;15.94;34.68;94352.97;5015728;28;20210;-80
2023/03/06 07:21:48;;;;;;;15.35;9.35;;;;;;;16.10;34.60;94362.63;5015552;28;20177;-81
2023/03/06 07:24:13;;;;;;;18.40;10.13;;;;;;;15.40;34.29;94366.34;5015682;28;20219;-83
2023/03/06 07:26:39;;;;;;;13.27;8.27;;;;;;;15.01;35.78;94363.06;5015590;28;20179;-81
2023/03/06 07:29:04;;;;;;;13.48;8.88;;;;;;;14.82;36.55;94355.69;5015246;28;20244;-80
2023/03/06 07:31:30;;;;;;;13.90;8.80;;;;;;;14.97;35.84;94351.34;5015767;28;20173;-79
2023/03/06 07:33:55;;;;;;;14.25;7.78;;;;;;;14.99;35.65;94361.72;5015438;28;20172;-80
2023/03/06 07:36:22;;;;;;;13.23;8.50;;;;;;;14.97;35.35;94363.81;5015731;28;20180;-80
2023/03/06 07:38:47;;;;;;;18.27;9.07;;;;;;;14.80;34.77;94358.59;5015402;28;20192;-80
2023/03/06 07:41:15;;;;;;;15.05;8.10;;;;;;;15.00;35.77;94360.66;5015234;28;20167;-80
2023/03/06 07:43:42;;;;;;;12.65;8.02;;;;;;;15.14;34.97;94366.34;5015287;28;20554;-80
2023/03/06 07:46:08;;;;;;;13.77;8.52;;;;;;;14.91;35.62;94364.81;5015356;28;20183;-80
2023/03/06 07:48:34;;;;;;;13.85;8.57;;;;;;;15.01;35.88;94364.91;5015105;28;20160;-80
2023/03/06 07:51:02;;;;;;;17.13;9.17;;;;;;;14.87;34.96;94366.38;5015045;28;20168;-80
2023/03/06 07:53:28;;;;;;;13.87;7.63;;;;;;;14.71;35.24;94368.84;5015302;28;20200;-80
2023/03/06 07:55:54;;;;;;;15.23;8.73;;;;;;;14.56;35.67;94368.66;5014677;28;20199;-80
2023/03/06 07:58:19;;;;;;;13.70;7.27;;;;;;;14.52;36.58;94361.47;5014883;28;20277;-80
2023/03/06 08:00:44;;;;;;;12.60;7.70;;;;;;;14.41;35.50;94375.63;5015045;28;20553;-80
2023/03/06 08:03:11;;;;;;;11.23;7.60;;;;;;;14.18;37.15;94368.69;5014384;28;20172;-80
2023/03/06 08:05:37;;;;;;;13.87;8.73;;;;;;;14.04;36.40;94325.09;5006052;28;20180;-80
2023/03/06 08:08:04;;;;;;;13.63;7.70;;;;;;;14.28;35.83;94361.66;5005777;28;20172;-80
2023/03/06 08:10:29;;;;;;;12.87;7.83;;;;;;;14.17;36.30;94357.31;5005459;28;20587;-80
2023/03/06 08:12:54;;;;;;;10.80;7.00;;;;;;;14.37;36.46;94367.34;5013455;28;20184;-80
2023/03/06 08:15:20;;;;;;;15.80;7.97;;;;;;;14.58;37.96;94363.94;5008037;28;20180;-80
2023/03/06 08:17:46;;;;;;;16.43;8.83;;;;;;;14.64;35.85;94368.22;5013868;28;20651;-80
2023/03/06 08:20:13;;;;;;;13.63;7.60;;;;;;;14.49;36.86;94354.81;5013648;28;20292;-80
2023/03/06 08:22:39;;;;;;;12.30;8.27;;;;;;;14.42;36.92;94319.78;5006243;28;20633;-80
2023/03/06 08:25:05;;;;;;;17.17;8.90;;;;;;;14.23;35.12;94337.78;5012883;28;20184;-80
2023/03/06 08:27:32;;;;;;;15.70;8.77;;;;;;;14.28;36.60;94339.69;5014084;28;20291;-80
2023/03/06 08:29:59;;;;;;;16.27;8.40;;;;;;;14.16;36.74;94355.72;5005717;28;20176;-80
2023/03/06 08:32:25;;;;;;;13.63;8.63;;;;;;;14.19;36.09;94359.69;5005561;28;20670;-80
2023/03/06 08:34:50;;;;;;;16.20;8.40;;;;;;;14.44;36.68;94357.41;4996371;28;20564;-80
2023/03/06 08:37:16;;;;;;;12.67;7.50;;;;;;;14.68;35.16;94361.41;5005184;28;20172;-80
2023/03/06 08:39:41;;;;;;;14.47;7.43;;;;;;;14.55;35.54;94311.44;4994539;28;20200;-82
2023/03/06 08:42:08;;;;;;;14.50;7.97;;;;;;;14.27;35.41;94311.63;4994421;28;20204;-80
2023/03/06 08:44:34;;;;;;;16.30;9.20;;;;;;;14.46;36.06;94367.75;4994655;28;20176;-80
2023/03/06 08:46:59;;;;;;;13.87;8.00;;;;;;;14.25;36.12;94342.84;5002900;28;20181;-80
2023/03/06 08:49:25;;;;;;;12.57;7.93;;;;;;;13.77;35.93;94311.75;5004977;28;20537;-83
2023/03/06 08:51:50;;;;;;;15.00;8.50;;;;;;;13.30;37.50;94351.00;5013183;28;20184;-81
2023/03/06 08:54:16;;;;;;;16.10;7.73;;;;;;;13.59;37.42;94352.50;5013304;28;20874;-80
2023/03/06 08:56:41;;;;;;;18.37;8.13;;;;;;;13.73;37.51;94316.75;5013175;28;20228;-81
2023/03/06 08:59:08;;;;;;;13.53;7.63;;;;;;;14.43;36.92;94347.88;5002791;28;20200;-80
2023/03/06 09:01:36;;;;;;;12.80;8.10;;;;;;;14.13;35.96;94311.19;5006151;28;20651;-80
2023/03/06 09:04:05;;;;;;;14.43;7.73;;;;;;;14.45;36.12;94344.94;5004762;28;20176;-83
2023/03/06 09:06:33;;;;;;;16.37;7.97;;;;;;;14.41;35.73;94349.16;5003545;28;20239;-80
2023/03/06 09:08:59;;;;;;;10.10;6.93;;;;;;;14.38;37.27;94342.47;5006335;28;20180;-80
2023/03/06 09:11:26;;;;;;;12.93;7.37;;;;;;;14.75;36.70;94344.50;5013982;28;20172;-82
2023/03/06 09:13:52;;;;;;;14.53;8.20;;;;;;;14.81;34.90;94346.16;5013671;28;20160;-81
2023/03/06 09:16:17;;;;;;;17.33;7.90;;;;;;;14.85;34.79;94345.41;5004748;28;20252;-81
2023/03/06 09:18:43;;;;;;;23.40;8.03;;;;;;;14.31;37.99;94291.53;5004414;28;20801;-81
2023/03/06 09:21:09;;;;;;;18.63;9.10;;;;;;;13.92;35.97;94298.75;5004466;28;20167;-81
2023/03/06 09:23:35;;;;;;;17.73;8.10;;;;;;;14.04;36.90;94335.69;5004382;28;20180;-82
2023/03/06 09:26:01;;;;;;;29.77;16.13;;;;;;;14.25;38.10;94335.69;5013488;28;20540;-81
2023/03/06 09:28:27;;;;;;;15.63;7.60;;;;;;;14.31;36.59;94339.19;5013116;28;20617;-81
2023/03/06 09:30:53;;;;;;;18.23;8.73;;;;;;;13.77;36.39;94336.38;5013083;28;20190;-79
2023/03/06 09:33:19;;;;;;;14.70;7.90;;;;;;;13.28;37.65;94342.50;5013765;28;20556;-82
2023/03/06 09:35:56;;;;;;;15.87;9.03;;;;;;;13.00;38.68;94336.19;5013425;28;20172;-85
2023/03/06 09:38:24;;;;;;;20.40;8.07;;;;;;;13.04;40.47;94336.53;5001248;28;20746;-83
2023/03/06 09:41:30;;;;;;;14.37;8.50;;;;;;;13.79;38.76;94330.84;5008644;28;20183;-83
2023/03/06 09:44:14;;;;;;;14.13;8.27;;;;;;;14.11;39.44;94293.94;4952624;29;20189;-83
2023/03/06 09:47:02;;;;;;;16.37;9.03;;;;;;;14.12;37.21;94314.88;4951166;28;20573;-84
2023/03/06 09:49:39;;;;;;;15.77;8.73;;;;;;;14.09;40.00;94327.81;4996631;28;20188;-83
2023/03/06 09:52:28;;;;;;;15.03;8.63;;;;;;;14.09;38.14;94317.22;4995040;28;20169;-83
2023/03/06 09:55:00;;;;;;;13.37;8.43;;;;;;;14.25;39.21;94313.72;5005366;28;20678;-83
2023/03/06 09:57:31;;;;;;;15.17;8.57;;;;;;;14.52;38.79;94317.25;5010497;28;20227;-84
2023/03/06 10:00:05;;;;;;;17.17;9.13;;;;;;;14.22;37.16;94308.91;5007789;28;20199;-84
2023/03/06 10:02:49;;;;;;;20.30;8.60;;;;;;;13.84;38.76;94283.28;4988851;28;20184;-83
2023/03/06 10:05:22;;;;;;;17.60;9.93;;;;;;;13.95;39.63;94293.75;5010502;28;20607;-81
2023/03/06 10:07:59;;;;;;;17.70;9.00;;;;;;;13.76;39.00;94304.84;5009746;28;20262;-81
2023/03/06 10:10:43;;;;;;;19.27;9.63;;;;;;;13.35;38.25;94295.53;5010338;28;20177;-81
2023/03/06 10:13:19;;;;;;;15.47;8.40;;;;;;;13.06;39.41;94303.50;5009874;28;20247;-83
2023/03/06 10:15:46;;;;;;;16.50;8.17;;;;;;;12.75;41.36;94275.81;5010480;28;20247;-82
2023/03/06 10:18:12;;;;;;;21.10;10.13;;;;;;;13.12;42.61;94310.50;5008329;28;20176;-83
2023/03/06 10:21:01;;;;;;;18.47;9.80;;;;;;;13.33;40.53;94300.25;4990843;28;20165;-82
2023/03/06 10:23:46;;;;;;;24.63;15.23;;;;;;;13.27;40.61;94280.91;4991138;28;20644;-82
2023/03/06 10:26:19;;;;;;;26.90;11.07;;;;;;;12.98;40.06;94293.34;4990772;28;20340;-83
2023/03/06 10:28:59;;;;;;;12.40;8.23;;;;;;;13.16;41.23;94287.06;4973732;28;20716;-83
2023/03/06 10:31:26;;;;;;;16.53;9.03;;;;;;;13.10;40.85;94256.28;5010013;28;20170;-83
2023/03/06 10:33:54;;;;;;;28.40;15.43;;;;;;;13.53;41.74;94290.00;5010518;28;20255;-83
2023/03/06 10:36:26;;;;;;;16.57;9.00;;;;;;;13.80;41.29;94296.22;5010543;28;20706;-82
2023/03/06 10:38:52;;;;;;;22.63;11.53;;;;;;;13.81;39.15;94286.44;4996847;28;20251;-82
2023/03/06 10:41:34;;;;;;;16.23;8.80;;;;;;;13.93;40.12;94276.50;4990883;28;20181;-83
2023/03/06 10:43:59;;;;;;;20.43;8.83;;;;;;;14.10;39.93;94277.25;4990834;28;20184;-83
2023/03/06 10:46:33;;;;;;;16.67;8.60;;;;;;;14.15;40.51;94277.34;4990620;28;20549;-82
2023/03/06 10:49:21;;;;;;;15.87;9.23;;;;;;;14.11;40.46;94272.75;4990837;28;20251;-82
2023/03/06 10:52:19;;;;;;;14.90;7.10;;;;;;;14.13;40.50;94254.81;4982402;28;20180;-82
2023/03/06 10:54:46;;;;;;;16.80;8.10;;;;;;;14.09;40.91;94246.56;4990827;28;20530;-83
2023/03/06 10:57:27;;;;;;;27.47;9.30;;;;;;;14.10;39.34;94250.00;5004633;28;20212;-83
2023/03/06 11:00:21;;;;;;;17.43;9.50;;;;;;;13.78;40.30;94226.06;4992402;28;20200;-82
2023/03/06 11:03:13;;;;;;;24.37;12.50;;;;;;;13.62;40.48;94219.78;5010227;28;20179;-83
2023/03/06 11:05:38;;;;;;;19.87;9.20;;;;;;;13.72;39.58;94241.09;5010011;28;20183;-84
2023/03/06 11:08:06;;;;;;;16.90;8.60;;;;;;;13.55;39.48;94227.91;5010292;28;20156;-82
2023/03/06 11:10:33;;;;;;;15.73;9.10;;;;;;;13.51;39.68;94241.84;5010063;28;20660;-81
2023/03/06 11:13:01;;;;;;;14.33;8.27;;;;;;;13.26;39.62;94244.13;4993543;28;20177;-81
2023/03/06 11:15:28;;;;;;;15.70;8.50;;;;;;;13.13;40.13;94253.16;4990581;28;20177;-82
2023/03/06 11:17:54;;;;;;;12.80;8.00;;;;;;;13.10;40.53;94241.22;4990375;28;20223;-81
2023/03/06 11:20:22;;;;;;;16.47;8.67;;;;;;;13.04;40.86;94231.63;4999942;28;20197;-81
2023/03/06 11:22:53;;;;;;;21.77;9.30;;;;;;;12.82;41.16;94217.53;5009894;28;20180;-81
2023/03/06 11:25:21;;;;;;;17.43;8.70;;;;;;;12.75;41.21;94215.06;5012907;28;20187;-81
2023/03/06 11:27:54;;;;;;;15.97;8.70;;;;;;;12.71;41.73;94205.22;4998496;28;20551;-82
2023/03/06 11:30:30;;;;;;;11.43;7.63;;;;;;;12.69;41.51;94210.75;4995829;28;20177;-82
2023/03/06 11:33:01;;;;;;;15.10;8.30;;;;;;;12.75;41.89;94198.41;5013549;28;20184;-82